sensor_id;sensor_type;location;lat;lon;timestamp;pressure;altitude;pressure_sealevel;temperature;humidity
7335;BME280;3708;42.632;23.378;2023-02-28T00:00:30;94737.78;;;11.12;62.55
7335;BME280;3708;42.632;23.378;2023-02-28T00:03:04;94739.00;;;11.06;62.47
7335;BME280;3708;42.632;23.378;2023-02-28T00:05:32;94739.78;;;11.15;62.54
7335;BME280;3708;42.632;23.378;2023-02-28T00:08:00;94744.72;;;11.17;62.40
7335;BME280;3708;42.632;23.378;2023-02-28T00:10:29;94738.53;;;11.21;62.44
7335;BME280;3708;42.632;23.378;2023-02-28T00:13:00;94738.22;;;11.31;62.14
7335;BME280;3708;42.632;23.378;2023-02-28T00:15:28;94750.09;;;11.37;62.18
7335;BME280;3708;42.632;23.378;2023-02-28T00:17:56;94752.25;;;11.44;62.07
7335;BME280;3708;42.632;23.378;2023-02-28T00:20:26;94751.66;;;11.38;62.19
7335;BME280;3708;42.632;23.378;2023-02-28T00:22:55;94747.94;;;11.39;61.91
7335;BME280;3708;42.632;23.378;2023-02-28T00:25:25;94744.25;;;11.32;62.29
7335;BME280;3708;42.632;23.378;2023-02-28T00:27:53;94745.75;;;11.50;61.57
7335;BME280;3708;42.632;23.378;2023-02-28T00:30:21;94742.06;;;11.42;61.83
7335;BME280;3708;42.632;23.378;2023-02-28T00:32:48;94744.03;;;11.54;61.62
7335;BME280;3708;42.632;23.378;2023-02-28T00:35:17;94752.84;;;11.58;61.60
7335;BME280;3708;42.632;23.378;2023-02-28T00:37:47;94748.38;;;11.67;61.25
7335;BME280;3708;42.632;23.378;2023-02-28T00:40:15;94741.28;;;11.68;61.20
7335;BME280;3708;42.632;23.378;2023-02-28T00:42:42;94725.84;;;11.75;61.25
7335;BME280;3708;42.632;23.378;2023-02-28T00:45:09;94736.81;;;11.60;61.19
7335;BME280;3708;42.632;23.378;2023-02-28T00:47:38;94728.75;;;11.65;61.36
7335;BME280;3708;42.632;23.378;2023-02-28T00:50:06;94730.31;;;11.57;61.27
7335;BME280;3708;42.632;23.378;2023-02-28T00:52:33;94725.88;;;11.40;61.48
7335;BME280;3708;42.632;23.378;2023-02-28T00:55:02;94733.56;;;11.45;61.42
7335;BME280;3708;42.632;23.378;2023-02-28T00:57:29;94747.78;;;11.36;61.33
7335;BME280;3708;42.632;23.378;2023-02-28T00:59:56;94746.56;;;11.16;62.21
7335;BME280;3708;42.632;23.378;2023-02-28T01:02:23;94742.38;;;11.32;62.17
7335;BME280;3708;42.632;23.378;2023-02-28T01:04:50;94744.06;;;11.37;62.06
7335;BME280;3708;42.632;23.378;2023-02-28T01:07:17;94757.84;;;11.08;62.20
7335;BME280;3708;42.632;23.378;2023-02-28T01:09:46;94741.78;;;11.18;62.24
7335;BME280;3708;42.632;23.378;2023-02-28T01:12:15;94749.03;;;11.21;62.23
7335;BME280;3708;42.632;23.378;2023-02-28T01:14:42;94735.63;;;11.31;61.98
7335;BME280;3708;42.632;23.378;2023-02-28T01:17:09;94729.56;;;11.39;61.75
7335;BME280;3708;42.632;23.378;2023-02-28T01:19:38;94731.75;;;11.37;61.91
7335;BME280;3708;42.632;23.378;2023-02-28T01:22:05;94735.16;;;11.29;61.45
7335;BME280;3708;42.632;23.378;2023-02-28T01:24:33;94734.84;;;11.22;61.74
7335;BME280;3708;42.632;23.378;2023-02-28T01:27:00;94728.34;;;11.28;62.12
7335;BME280;3708;42.632;23.378;2023-02-28T01:29:28;94729.00;;;11.25;62.14
7335;BME280;3708;42.632;23.378;2023-02-28T01:31:55;94726.38;;;11.25;62.20
7335;BME280;3708;42.632;23.378;2023-02-28T01:34:22;94725.28;;;11.26;62.36
7335;BME280;3708;42.632;23.378;2023-02-28T01:36:49;94726.03;;;11.35;62.18
7335;BME280;3708;42.632;23.378;2023-02-28T01:39:19;94729.91;;;11.29;61.92
7335;BME280;3708;42.632;23.378;2023-02-28T01:41:48;94732.22;;;11.31;62.21
7335;BME280;3708;42.632;23.378;2023-02-28T01:47:24;94740.38;;;11.38;61.49
7335;BME280;3708;42.632;23.378;2023-02-28T01:49:52;94735.44;;;11.19;62.20
7335;BME280;3708;42.632;23.378;2023-02-28T01:52:19;94741.31;;;11.33;62.16
7335;BME280;3708;42.632;23.378;2023-02-28T01:54:51;94733.59;;;10.60;63.73
7335;BME280;3708;42.632;23.378;2023-02-28T01:57:24;94750.34;;;10.03;65.17
7335;BME280;3708;42.632;23.378;2023-02-28T01:59:57;94738.78;;;9.34;67.74
7335;BME280;3708;42.632;23.378;2023-02-28T02:02:28;94742.13;;;9.34;67.34
7335;BME280;3708;42.632;23.378;2023-02-28T02:04:58;94739.63;;;9.51;67.02
7335;BME280;3708;42.632;23.378;2023-02-28T02:07:32;94746.75;;;9.59;67.12
7335;BME280;3708;42.632;23.378;2023-02-28T02:10:02;94744.75;;;8.90;69.86
7335;BME280;3708;42.632;23.378;2023-02-28T02:13:05;94743.50;;;8.38;72.15
7335;BME280;3708;42.632;23.378;2023-02-28T02:15:40;94748.69;;;8.24;74.29
7335;BME280;3708;42.632;23.378;2023-02-28T02:18:19;94742.59;;;8.92;71.77
7335;BME280;3708;42.632;23.378;2023-02-28T02:21:15;94747.72;;;9.19;70.46
7335;BME280;3708;42.632;23.378;2023-02-28T02:27:12;94740.59;;;9.55;69.56
7335;BME280;3708;42.632;23.378;2023-02-28T02:33:05;94732.88;;;9.81;68.48
7335;BME280;3708;42.632;23.378;2023-02-28T02:35:40;94727.59;;;9.72;67.84
7335;BME280;3708;42.632;23.378;2023-02-28T02:38:18;94733.66;;;9.06;70.03
7335;BME280;3708;42.632;23.378;2023-02-28T02:40:54;94736.91;;;8.90;71.19
7335;BME280;3708;42.632;23.378;2023-02-28T02:43:25;94739.66;;;9.07;69.95
7335;BME280;3708;42.632;23.378;2023-02-28T02:45:58;94737.63;;;8.82;71.38
7335;BME280;3708;42.632;23.378;2023-02-28T02:48:30;94741.38;;;9.11;70.44
7335;BME280;3708;42.632;23.378;2023-02-28T02:51:02;94739.91;;;8.97;70.54
7335;BME280;3708;42.632;23.378;2023-02-28T02:53:34;94745.59;;;9.21;70.57
7335;BME280;3708;42.632;23.378;2023-02-28T02:56:03;94747.72;;;9.19;70.74
7335;BME280;3708;42.632;23.378;2023-02-28T02:58:37;94747.59;;;9.46;69.56
7335;BME280;3708;42.632;23.378;2023-02-28T03:01:08;94758.81;;;9.47;69.26
7335;BME280;3708;42.632;23.378;2023-02-28T03:03:37;94767.22;;;9.57;69.36
7335;BME280;3708;42.632;23.378;2023-02-28T03:06:06;94780.44;;;9.83;68.70
7335;BME280;3708;42.632;23.378;2023-02-28T03:08:35;94769.53;;;9.89;68.99
7335;BME280;3708;42.632;23.378;2023-02-28T03:11:04;94778.72;;;10.09;68.49
7335;BME280;3708;42.632;23.378;2023-02-28T03:13:46;94781.59;;;10.30;68.09
7335;BME280;3708;42.632;23.378;2023-02-28T03:16:33;94783.69;;;10.58;67.64
7335;BME280;3708;42.632;23.378;2023-02-28T03:19:31;94790.47;;;10.68;66.86
7335;BME280;3708;42.632;23.378;2023-02-28T03:22:14;94780.28;;;10.66;66.40
7335;BME280;3708;42.632;23.378;2023-02-28T03:24:49;94795.09;;;10.71;65.58
7335;BME280;3708;42.632;23.378;2023-02-28T03:27:22;94792.75;;;10.61;65.29
7335;BME280;3708;42.632;23.378;2023-02-28T03:29:56;94787.25;;;10.71;65.25
7335;BME280;3708;42.632;23.378;2023-02-28T03:32:28;94800.78;;;10.56;64.53
7335;BME280;3708;42.632;23.378;2023-02-28T03:35:00;94800.59;;;10.52;64.18
7335;BME280;3708;42.632;23.378;2023-02-28T03:37:35;94795.78;;;10.46;63.98
7335;BME280;3708;42.632;23.378;2023-02-28T03:40:08;94795.31;;;10.44;64.07
7335;BME280;3708;42.632;23.378;2023-02-28T03:42:39;94809.19;;;10.44;63.87
7335;BME280;3708;42.632;23.378;2023-02-28T03:45:11;94807.69;;;10.52;64.21
7335;BME280;3708;42.632;23.378;2023-02-28T03:47:44;94800.28;;;10.45;63.82
7335;BME280;3708;42.632;23.378;2023-02-28T03:50:16;94813.41;;;10.54;63.69
7335;BME280;3708;42.632;23.378;2023-02-28T03:52:53;94811.09;;;10.61;64.02
7335;BME280;3708;42.632;23.378;2023-02-28T03:55:28;94803.81;;;10.41;63.41
7335;BME280;3708;42.632;23.378;2023-02-28T03:58:03;94808.84;;;10.37;63.64
7335;BME280;3708;42.632;23.378;2023-02-28T04:00:34;94805.97;;;10.39;63.48
7335;BME280;3708;42.632;23.378;2023-02-28T04:03:02;94809.31;;;10.31;63.42
7335;BME280;3708;42.632;23.378;2023-02-28T04:05:46;94811.69;;;9.88;64.03
7335;BME280;3708;42.632;23.378;2023-02-28T04:08:17;94799.78;;;10.04;64.06
7335;BME280;3708;42.632;23.378;2023-02-28T04:10:52;94801.69;;;10.12;64.14
7335;BME280;3708;42.632;23.378;2023-02-28T04:13:22;94797.97;;;9.38;65.77
7335;BME280;3708;42.632;23.378;2023-02-28T04:15:49;94804.56;;;9.13;67.04
7335;BME280;3708;42.632;23.378;2023-02-28T04:18:16;94803.16;;;9.30;67.54
7335;BME280;3708;42.632;23.378;2023-02-28T04:20:43;94800.59;;;9.60;66.61
7335;BME280;3708;42.632;23.378;2023-02-28T04:26:00;94800.75;;;9.55;66.54
7335;BME280;3708;42.632;23.378;2023-02-28T04:28:31;94800.38;;;9.70;66.33
7335;BME280;3708;42.632;23.378;2023-02-28T04:31:00;94793.53;;;9.83;66.16
7335;BME280;3708;42.632;23.378;2023-02-28T04:33:29;94800.66;;;9.69;66.23
7335;BME280;3708;42.632;23.378;2023-02-28T04:36:01;94808.91;;;9.84;65.91
7335;BME280;3708;42.632;23.378;2023-02-28T04:38:29;94806.78;;;9.64;66.00
7335;BME280;3708;42.632;23.378;2023-02-28T04:40:58;94809.53;;;9.59;66.38
7335;BME280;3708;42.632;23.378;2023-02-28T04:43:26;94820.09;;;9.32;66.76
7335;BME280;3708;42.632;23.378;2023-02-28T04:45:53;94822.97;;;9.44;66.78
7335;BME280;3708;42.632;23.378;2023-02-28T04:48:22;94814.75;;;9.59;66.56
7335;BME280;3708;42.632;23.378;2023-02-28T04:50:49;94824.38;;;9.72;66.38
7335;BME280;3708;42.632;23.378;2023-02-28T04:53:17;94831.25;;;9.90;66.20
7335;BME280;3708;42.632;23.378;2023-02-28T04:55:44;94826.53;;;9.70;65.46
7335;BME280;3708;42.632;23.378;2023-02-28T04:58:13;94827.94;;;9.76;66.06
7335;BME280;3708;42.632;23.378;2023-02-28T05:00:40;94830.63;;;9.63;66.17
7335;BME280;3708;42.632;23.378;2023-02-28T05:03:07;94836.81;;;9.67;66.04
7335;BME280;3708;42.632;23.378;2023-02-28T05:05:35;94835.44;;;9.69;65.85
7335;BME280;3708;42.632;23.378;2023-02-28T05:08:01;94827.22;;;9.84;65.97
7335;BME280;3708;42.632;23.378;2023-02-28T05:10:28;94826.88;;;9.77;65.88
7335;BME280;3708;42.632;23.378;2023-02-28T05:12:55;94829.25;;;9.87;65.60
7335;BME280;3708;42.632;23.378;2023-02-28T05:15:23;94831.50;;;9.80;65.53
7335;BME280;3708;42.632;23.378;2023-02-28T05:17:51;94838.38;;;9.98;65.65
7335;BME280;3708;42.632;23.378;2023-02-28T05:20:18;94837.91;;;9.96;65.76
7335;BME280;3708;42.632;23.378;2023-02-28T05:22:46;94851.72;;;10.11;65.59
7335;BME280;3708;42.632;23.378;2023-02-28T05:25:19;94849.06;;;10.33;65.78
7335;BME280;3708;42.632;23.378;2023-02-28T05:27:47;94841.69;;;10.35;65.51
7335;BME280;3708;42.632;23.378;2023-02-28T05:30:16;94842.66;;;10.47;65.07
7335;BME280;3708;42.632;23.378;2023-02-28T05:32:50;94856.09;;;10.24;64.15
7335;BME280;3708;42.632;23.378;2023-02-28T05:35:17;94852.00;;;10.09;64.41
7335;BME280;3708;42.632;23.378;2023-02-28T05:37:44;94853.84;;;10.09;64.30
7335;BME280;3708;42.632;23.378;2023-02-28T05:40:11;94860.03;;;9.90;64.82
7335;BME280;3708;42.632;23.378;2023-02-28T05:42:38;94863.94;;;10.02;64.81
7335;BME280;3708;42.632;23.378;2023-02-28T05:45:06;94867.66;;;9.56;65.35
7335;BME280;3708;42.632;23.378;2023-02-28T05:47:34;94857.84;;;9.62;65.83
7335;BME280;3708;42.632;23.378;2023-02-28T05:50:02;94870.56;;;9.77;65.57
7335;BME280;3708;42.632;23.378;2023-02-28T05:52:29;94874.72;;;10.00;65.42
7335;BME280;3708;42.632;23.378;2023-02-28T05:54:56;94872.66;;;10.11;65.00
7335;BME280;3708;42.632;23.378;2023-02-28T05:57:23;94871.22;;;10.05;65.13
7335;BME280;3708;42.632;23.378;2023-02-28T05:59:50;94869.66;;;10.26;64.63
7335;BME280;3708;42.632;23.378;2023-02-28T06:02:17;94868.56;;;10.27;64.68
7335;BME280;3708;42.632;23.378;2023-02-28T06:04:44;94862.75;;;10.30;64.88
7335;BME280;3708;42.632;23.378;2023-02-28T06:07:13;94870.19;;;10.36;64.48
7335;BME280;3708;42.632;23.378;2023-02-28T06:09:40;94875.44;;;10.45;63.96
7335;BME280;3708;42.632;23.378;2023-02-28T06:12:07;94871.81;;;10.54;63.91
7335;BME280;3708;42.632;23.378;2023-02-28T06:14:35;94858.84;;;10.49;64.11
7335;BME280;3708;42.632;23.378;2023-02-28T06:17:03;94870.84;;;10.50;63.91
7335;BME280;3708;42.632;23.378;2023-02-28T06:19:30;94871.19;;;10.57;63.98
7335;BME280;3708;42.632;23.378;2023-02-28T06:21:57;94859.94;;;10.57;63.70
7335;BME280;3708;42.632;23.378;2023-02-28T06:24:26;94876.09;;;10.59;63.74
7335;BME280;3708;42.632;23.378;2023-02-28T06:26:54;94871.09;;;10.71;63.94
7335;BME280;3708;42.632;23.378;2023-02-28T06:29:21;94868.94;;;10.73;63.49
7335;BME280;3708;42.632;23.378;2023-02-28T06:31:48;94876.78;;;10.73;63.68
7335;BME280;3708;42.632;23.378;2023-02-28T06:34:15;94890.03;;;10.77;63.70
7335;BME280;3708;42.632;23.378;2023-02-28T06:36:42;94878.09;;;10.93;63.48
7335;BME280;3708;42.632;23.378;2023-02-28T06:39:10;94876.44;;;10.66;63.70
7335;BME280;3708;42.632;23.378;2023-02-28T06:41:38;94874.22;;;10.90;63.59
7335;BME280;3708;42.632;23.378;2023-02-28T06:44:08;94878.06;;;10.84;63.40
7335;BME280;3708;42.632;23.378;2023-02-28T06:46:38;94882.22;;;10.85;63.53
7335;BME280;3708;42.632;23.378;2023-02-28T06:49:06;94882.72;;;10.48;63.80
7335;BME280;3708;42.632;23.378;2023-02-28T06:51:35;94890.50;;;10.70;64.09
7335;BME280;3708;42.632;23.378;2023-02-28T06:54:02;94887.31;;;10.82;63.91
7335;BME280;3708;42.632;23.378;2023-02-28T06:56:29;94892.03;;;10.71;64.18
7335;BME280;3708;42.632;23.378;2023-02-28T06:58:57;94898.31;;;10.61;64.76
7335;BME280;3708;42.632;23.378;2023-02-28T07:01:24;94895.47;;;10.80;64.04
7335;BME280;3708;42.632;23.378;2023-02-28T07:03:51;94892.97;;;10.75;64.10
7335;BME280;3708;42.632;23.378;2023-02-28T07:06:18;94891.00;;;10.89;63.95
7335;BME280;3708;42.632;23.378;2023-02-28T07:08:46;94886.84;;;10.88;63.86
7335;BME280;3708;42.632;23.378;2023-02-28T07:11:12;94892.00;;;11.10;63.69
7335;BME280;3708;42.632;23.378;2023-02-28T07:13:39;94890.03;;;11.24;63.23
7335;BME280;3708;42.632;23.378;2023-02-28T07:16:10;94889.22;;;11.07;63.27
7335;BME280;3708;42.632;23.378;2023-02-28T07:18:37;94888.16;;;11.16;63.31
7335;BME280;3708;42.632;23.378;2023-02-28T07:21:05;94885.09;;;11.31;63.23
7335;BME280;3708;42.632;23.378;2023-02-28T07:23:33;94890.69;;;11.56;63.14
7335;BME280;3708;42.632;23.378;2023-02-28T07:25:59;94893.78;;;11.75;62.67
7335;BME280;3708;42.632;23.378;2023-02-28T07:28:27;94895.03;;;11.77;62.28
7335;BME280;3708;42.632;23.378;2023-02-28T07:30:53;94882.81;;;11.98;62.40
7335;BME280;3708;42.632;23.378;2023-02-28T07:33:22;94882.47;;;12.08;62.01
7335;BME280;3708;42.632;23.378;2023-02-28T07:35:49;94883.66;;;12.28;62.11
7335;BME280;3708;42.632;23.378;2023-02-28T07:38:16;94892.13;;;12.42;61.95
7335;BME280;3708;42.632;23.378;2023-02-28T07:40:43;94886.69;;;12.47;61.93
7335;BME280;3708;42.632;23.378;2023-02-28T07:43:09;94884.66;;;12.61;61.27
7335;BME280;3708;42.632;23.378;2023-02-28T07:45:36;94884.13;;;12.76;61.31
7335;BME280;3708;42.632;23.378;2023-02-28T07:48:03;94897.19;;;12.93;61.49
7335;BME280;3708;42.632;23.378;2023-02-28T07:50:32;94886.94;;;13.00;61.11
7335;BME280;3708;42.632;23.378;2023-02-28T07:52:59;94891.81;;;12.81;61.31
7335;BME280;3708;42.632;23.378;2023-02-28T07:55:26;94887.72;;;13.01;61.23
7335;BME280;3708;42.632;23.378;2023-02-28T07:57:53;94890.00;;;12.73;61.67
7335;BME280;3708;42.632;23.378;2023-02-28T08:00:21;94879.78;;;12.80;62.00
7335;BME280;3708;42.632;23.378;2023-02-28T08:02:47;94887.44;;;12.94;61.89
7335;BME280;3708;42.632;23.378;2023-02-28T08:05:14;94884.16;;;13.06;61.73
7335;BME280;3708;42.632;23.378;2023-02-28T08:07:42;94886.63;;;13.11;62.14
7335;BME280;3708;42.632;23.378;2023-02-28T08:10:10;94890.88;;;13.24;61.58
7335;BME280;3708;42.632;23.378;2023-02-28T08:12:37;94894.13;;;13.41;61.25
7335;BME280;3708;42.632;23.378;2023-02-28T08:15:04;94886.78;;;13.35;61.09
7335;BME280;3708;42.632;23.378;2023-02-28T08:17:31;94885.50;;;13.41;60.84
7335;BME280;3708;42.632;23.378;2023-02-28T08:19:58;94882.53;;;13.63;60.71
7335;BME280;3708;42.632;23.378;2023-02-28T08:22:25;94879.56;;;13.85;60.54
7335;BME280;3708;42.632;23.378;2023-02-28T08:24:53;94884.56;;;13.78;61.00
7335;BME280;3708;42.632;23.378;2023-02-28T08:27:20;94882.16;;;13.52;61.83
7335;BME280;3708;42.632;23.378;2023-02-28T08:29:47;94887.53;;;13.76;61.64
7335;BME280;3708;42.632;23.378;2023-02-28T08:32:13;94884.47;;;13.95;61.15
7335;BME280;3708;42.632;23.378;2023-02-28T08:34:40;94888.91;;;14.15;60.49
7335;BME280;3708;42.632;23.378;2023-02-28T08:37:07;94892.72;;;14.38;60.11
7335;BME280;3708;42.632;23.378;2023-02-28T08:39:34;94889.66;;;14.16;60.05
7335;BME280;3708;42.632;23.378;2023-02-28T08:42:04;94891.97;;;14.17;59.48
7335;BME280;3708;42.632;23.378;2023-02-28T08:44:30;94889.09;;;14.43;58.61
7335;BME280;3708;42.632;23.378;2023-02-28T08:46:57;94880.25;;;14.72;58.33
7335;BME280;3708;42.632;23.378;2023-02-28T08:49:24;94881.38;;;14.83;58.06
7335;BME280;3708;42.632;23.378;2023-02-28T08:51:51;94890.50;;;14.85;57.62
7335;BME280;3708;42.632;23.378;2023-02-28T08:54:17;94896.31;;;14.79;57.46
7335;BME280;3708;42.632;23.378;2023-02-28T08:56:45;94893.19;;;14.52;57.30
7335;BME280;3708;42.632;23.378;2023-02-28T08:59:13;94893.84;;;14.49;58.37
7335;BME280;3708;42.632;23.378;2023-02-28T09:01:41;94897.19;;;14.83;57.80
7335;BME280;3708;42.632;23.378;2023-02-28T09:04:09;94892.69;;;14.95;57.08
7335;BME280;3708;42.632;23.378;2023-02-28T09:06:37;94895.88;;;14.89;56.10
7335;BME280;3708;42.632;23.378;2023-02-28T09:09:04;94897.06;;;15.03;55.51
7335;BME280;3708;42.632;23.378;2023-02-28T09:11:33;94901.06;;;15.09;54.39
7335;BME280;3708;42.632;23.378;2023-02-28T09:14:00;94895.78;;;15.09;53.69
7335;BME280;3708;42.632;23.378;2023-02-28T09:16:30;94896.09;;;15.20;53.36
7335;BME280;3708;42.632;23.378;2023-02-28T09:18:57;94900.38;;;15.12;53.09
7335;BME280;3708;42.632;23.378;2023-02-28T09:21:24;94898.94;;;15.15;53.21
7335;BME280;3708;42.632;23.378;2023-02-28T09:23:51;94895.31;;;15.32;53.01
7335;BME280;3708;42.632;23.378;2023-02-28T09:26:20;94895.94;;;15.53;52.26
7335;BME280;3708;42.632;23.378;2023-02-28T09:28:47;94895.13;;;15.76;52.02
7335;BME280;3708;42.632;23.378;2023-02-28T09:31:17;94899.34;;;15.65;50.93
7335;BME280;3708;42.632;23.378;2023-02-28T09:33:48;94902.31;;;15.64;51.06
7335;BME280;3708;42.632;23.378;2023-02-28T09:36:16;94897.34;;;15.74;51.22
7335;BME280;3708;42.632;23.378;2023-02-28T09:38:43;94891.66;;;15.60;52.99
7335;BME280;3708;42.632;23.378;2023-02-28T09:41:13;94888.06;;;15.28;54.53
7335;BME280;3708;42.632;23.378;2023-02-28T09:43:44;94887.28;;;15.28;55.14
7335;BME280;3708;42.632;23.378;2023-02-28T09:46:27;94888.69;;;15.38;54.10
7335;BME280;3708;42.632;23.378;2023-02-28T09:48:56;94891.13;;;15.55;52.62
7335;BME280;3708;42.632;23.378;2023-02-28T09:51:34;94890.81;;;15.84;51.41
7335;BME280;3708;42.632;23.378;2023-02-28T09:54:04;94882.56;;;15.85;50.91
7335;BME280;3708;42.632;23.378;2023-02-28T09:56:36;94890.72;;;15.80;50.46
7335;BME280;3708;42.632;23.378;2023-02-28T09:59:11;94892.81;;;15.87;50.90
7335;BME280;3708;42.632;23.378;2023-02-28T10:01:50;94881.91;;;15.76;50.55
7335;BME280;3708;42.632;23.378;2023-02-28T10:04:36;94886.03;;;15.74;50.62
7335;BME280;3708;42.632;23.378;2023-02-28T10:07:14;94875.69;;;15.96;50.28
7335;BME280;3708;42.632;23.378;2023-02-28T10:09:46;94887.53;;;16.02;50.03
7335;BME280;3708;42.632;23.378;2023-02-28T10:12:16;94885.69;;;16.03;50.05
7335;BME280;3708;42.632;23.378;2023-02-28T10:14:45;94874.09;;;15.80;50.51
7335;BME280;3708;42.632;23.378;2023-02-28T10:17:15;94875.78;;;15.72;51.65
7335;BME280;3708;42.632;23.378;2023-02-28T10:19:56;94873.97;;;15.88;51.93
7335;BME280;3708;42.632;23.378;2023-02-28T10:22:29;94872.47;;;15.75;52.59
7335;BME280;3708;42.632;23.378;2023-02-28T10:24:59;94863.03;;;16.02;51.85
7335;BME280;3708;42.632;23.378;2023-02-28T10:27:30;94861.03;;;15.99;52.73
7335;BME280;3708;42.632;23.378;2023-02-28T10:29:59;94857.63;;;15.98;52.57
7335;BME280;3708;42.632;23.378;2023-02-28T10:32:29;94851.47;;;16.38;52.22
7335;BME280;3708;42.632;23.378;2023-02-28T10:35:00;94852.88;;;16.20;52.47
7335;BME280;3708;42.632;23.378;2023-02-28T10:37:28;94841.47;;;16.16;52.38
7335;BME280;3708;42.632;23.378;2023-02-28T10:39:57;94842.31;;;16.20;51.93
7335;BME280;3708;42.632;23.378;2023-02-28T10:42:25;94834.94;;;16.25;52.20
7335;BME280;3708;42.632;23.378;2023-02-28T10:45:06;94841.13;;;16.60;51.17
7335;BME280;3708;42.632;23.378;2023-02-28T10:47:34;94834.72;;;16.93;49.15
7335;BME280;3708;42.632;23.378;2023-02-28T10:50:08;94819.66;;;16.97;48.72
7335;BME280;3708;42.632;23.378;2023-02-28T10:52:53;94830.88;;;16.74;49.15
7335;BME280;3708;42.632;23.378;2023-02-28T10:55:23;94826.22;;;17.37;48.26
7335;BME280;3708;42.632;23.378;2023-02-28T10:57:51;94824.50;;;17.64;47.11
7335;BME280;3708;42.632;23.378;2023-02-28T11:00:21;94821.94;;;17.48;47.29
7335;BME280;3708;42.632;23.378;2023-02-28T11:02:48;94806.53;;;17.73;46.71
7335;BME280;3708;42.632;23.378;2023-02-28T11:05:30;94812.50;;;18.08;46.94
7335;BME280;3708;42.632;23.378;2023-02-28T11:08:03;94810.59;;;18.28;45.60
7335;BME280;3708;42.632;23.378;2023-02-28T11:10:32;94810.63;;;18.09;44.84
7335;BME280;3708;42.632;23.378;2023-02-28T11:13:00;94801.25;;;18.15;45.67
7335;BME280;3708;42.632;23.378;2023-02-28T11:15:30;94803.41;;;17.87;46.21
7335;BME280;3708;42.632;23.378;2023-02-28T11:17:59;94794.41;;;17.72;46.22
7335;BME280;3708;42.632;23.378;2023-02-28T11:20:30;94803.66;;;17.82;46.50
7335;BME280;3708;42.632;23.378;2023-02-28T11:23:01;94795.63;;;17.97;46.10
7335;BME280;3708;42.632;23.378;2023-02-28T11:25:30;94797.69;;;17.85;46.46
7335;BME280;3708;42.632;23.378;2023-02-28T11:28:00;94796.97;;;17.88;46.26
7335;BME280;3708;42.632;23.378;2023-02-28T11:30:33;94794.41;;;17.91;45.81
7335;BME280;3708;42.632;23.378;2023-02-28T11:33:01;94799.34;;;17.93;46.31
7335;BME280;3708;42.632;23.378;2023-02-28T11:35:31;94799.09;;;17.79;46.60
7335;BME280;3708;42.632;23.378;2023-02-28T11:38:00;94793.06;;;17.82;46.85
7335;BME280;3708;42.632;23.378;2023-02-28T11:40:51;94795.31;;;17.80;45.27
7335;BME280;3708;42.632;23.378;2023-02-28T11:43:30;94790.53;;;18.08;44.50
7335;BME280;3708;42.632;23.378;2023-02-28T11:46:15;94798.69;;;17.99;45.13
7335;BME280;3708;42.632;23.378;2023-02-28T11:48:54;94786.00;;;18.31;43.92
7335;BME280;3708;42.632;23.378;2023-02-28T11:51:31;94782.63;;;18.79;43.20
7335;BME280;3708;42.632;23.378;2023-02-28T11:54:09;94785.41;;;18.86;43.18
7335;BME280;3708;42.632;23.378;2023-02-28T11:56:48;94781.72;;;18.68;43.04
7335;BME280;3708;42.632;23.378;2023-02-28T11:59:43;94780.88;;;18.42;43.32
7335;BME280;3708;42.632;23.378;2023-02-28T12:02:33;94777.72;;;18.55;43.42
7335;BME280;3708;42.632;23.378;2023-02-28T12:05:24;94780.72;;;18.54;42.45
7335;BME280;3708;42.632;23.378;2023-02-28T12:08:05;94788.25;;;18.74;43.14
7335;BME280;3708;42.632;23.378;2023-02-28T12:10:39;94781.59;;;18.87;42.51
7335;BME280;3708;42.632;23.378;2023-02-28T12:13:18;94783.16;;;18.88;42.41
7335;BME280;3708;42.632;23.378;2023-02-28T12:19:01;94774.31;;;18.81;42.38
7335;BME280;3708;42.632;23.378;2023-02-28T12:21:40;94770.56;;;18.37;43.09
7335;BME280;3708;42.632;23.378;2023-02-28T12:24:43;94760.84;;;18.44;43.19
7335;BME280;3708;42.632;23.378;2023-02-28T12:27:17;94770.06;;;18.50;43.06
7335;BME280;3708;42.632;23.378;2023-02-28T12:29:49;94770.75;;;18.47;43.34
7335;BME280;3708;42.632;23.378;2023-02-28T12:32:22;94766.94;;;18.03;44.67
7335;BME280;3708;42.632;23.378;2023-02-28T12:34:56;94775.44;;;18.12;44.94
7335;BME280;3708;42.632;23.378;2023-02-28T12:37:27;94766.84;;;17.96;45.45
7335;BME280;3708;42.632;23.378;2023-02-28T12:40:01;94768.03;;;17.98;45.46
7335;BME280;3708;42.632;23.378;2023-02-28T12:42:33;94769.97;;;17.60;46.52
7335;BME280;3708;42.632;23.378;2023-02-28T12:45:09;94762.75;;;17.41;47.04
7335;BME280;3708;42.632;23.378;2023-02-28T12:47:38;94774.50;;;17.24;47.11
7335;BME280;3708;42.632;23.378;2023-02-28T12:50:09;94770.47;;;17.49;46.15
7335;BME280;3708;42.632;23.378;2023-02-28T12:52:41;94766.50;;;17.40;45.91
7335;BME280;3708;42.632;23.378;2023-02-28T12:55:19;94777.84;;;17.40;46.10
7335;BME280;3708;42.632;23.378;2023-02-28T12:57:53;94759.66;;;17.39;46.44
7335;BME280;3708;42.632;23.378;2023-02-28T13:00:29;94767.59;;;17.20;47.51
7335;BME280;3708;42.632;23.378;2023-02-28T13:03:27;94768.72;;;17.19;47.04
7335;BME280;3708;42.632;23.378;2023-02-28T13:06:20;94768.44;;;17.24;47.20
7335;BME280;3708;42.632;23.378;2023-02-28T13:08:59;94773.34;;;17.60;45.58
7335;BME280;3708;42.632;23.378;2023-02-28T13:11:31;94764.06;;;17.31;45.58
7335;BME280;3708;42.632;23.378;2023-02-28T13:14:01;94771.28;;;17.15;45.71
7335;BME280;3708;42.632;23.378;2023-02-28T13:16:47;94768.66;;;17.15;46.07
7335;BME280;3708;42.632;23.378;2023-02-28T13:19:18;94766.78;;;17.16;46.14
7335;BME280;3708;42.632;23.378;2023-02-28T13:21:47;94766.47;;;17.02;46.43
7335;BME280;3708;42.632;23.378;2023-02-28T13:27:32;94761.94;;;16.36;47.12
7335;BME280;3708;42.632;23.378;2023-02-28T13:30:00;94759.81;;;16.57;46.82
7335;BME280;3708;42.632;23.378;2023-02-28T13:32:46;94766.28;;;16.44;47.44
7335;BME280;3708;42.632;23.378;2023-02-28T13:35:37;94761.84;;;16.64;47.15
7335;BME280;3708;42.632;23.378;2023-02-28T13:38:32;94760.66;;;16.61;47.15
7335;BME280;3708;42.632;23.378;2023-02-28T13:44:05;94764.66;;;16.71;47.25
7335;BME280;3708;42.632;23.378;2023-02-28T13:46:35;94755.34;;;16.46;47.48
7335;BME280;3708;42.632;23.378;2023-02-28T13:49:19;94754.34;;;16.66;46.61
7335;BME280;3708;42.632;23.378;2023-02-28T13:51:47;94746.22;;;16.43;47.06
7335;BME280;3708;42.632;23.378;2023-02-28T13:54:34;94741.88;;;15.88;48.26